Terminal Aerodrome Forecast
Issued by NWS

Home | Current Version | Previous Version | Text Only | Print | Product List | Glossary On
Versions: 1 2 3 4 5 6 7 8 9 10 11 12 13 14 15 16 17 18 19 20 21 22 23 24 25 26 27 28 29 30 31 32 33 34 35 36 37 38 39 40 41 42 43 44 45 46
000
FTUS45 KPSR 040024 AAB
TAFIWA
TAF AMD
KIWA 040024Z 0400/0424 16018G28KT 5SM BLDU VCSH BKN100 BKN180
     FM040100 17012G18KT P6SM VCSH BKN100 BKN180
     FM040400 15010KT P6SM VCSH BKN100 BKN250
     FM040800 12007KT P6SM SCT100 BKN250
     FM042100 18010KT P6SM VCTS SCT100CB BKN200
      AMD LTD TO CLD VIS AND WIND TIL 041300=

USA.gov is the U.S. government's official web portal to all federal, state and local government web resources and services.